sensor_id;sensor_type;location;lat;lon;timestamp;P1;durP1;ratioP1;P2;durP2;ratioP2
66020;SDS011;52789;59.980;30.346;2024-01-10T00:01:34;3.83;;;3.20;;
66020;SDS011;52789;59.980;30.346;2024-01-10T00:04:00;3.53;;;3.00;;
66020;SDS011;52789;59.980;30.346;2024-01-10T00:06:26;3.60;;;3.20;;
66020;SDS011;52789;59.980;30.346;2024-01-10T00:08:51;4.73;;;3.67;;
66020;SDS011;52789;59.980;30.346;2024-01-10T00:11:17;4.20;;;3.57;;
66020;SDS011;52789;59.980;30.346;2024-01-10T00:13:43;3.50;;;3.20;;
66020;SDS011;52789;59.980;30.346;2024-01-10T00:16:09;4.27;;;3.40;;
66020;SDS011;52789;59.980;30.346;2024-01-10T00:18:38;3.57;;;3.07;;
66020;SDS011;52789;59.980;30.346;2024-01-10T00:21:05;4.23;;;3.77;;
66020;SDS011;52789;59.980;30.346;2024-01-10T00:23:31;4.30;;;3.87;;
66020;SDS011;52789;59.980;30.346;2024-01-10T00:25:57;5.47;;;3.83;;
66020;SDS011;52789;59.980;30.346;2024-01-10T00:28:23;6.30;;;3.50;;
66020;SDS011;52789;59.980;30.346;2024-01-10T00:30:48;5.27;;;4.57;;
66020;SDS011;52789;59.980;30.346;2024-01-10T00:33:14;5.07;;;4.63;;
66020;SDS011;52789;59.980;30.346;2024-01-10T00:35:40;5.53;;;4.00;;
66020;SDS011;52789;59.980;30.346;2024-01-10T00:38:06;5.50;;;4.90;;
66020;SDS011;52789;59.980;30.346;2024-01-10T00:40:31;6.20;;;4.87;;
66020;SDS011;52789;59.980;30.346;2024-01-10T00:42:57;4.80;;;4.33;;
66020;SDS011;52789;59.980;30.346;2024-01-10T00:45:22;4.60;;;4.10;;
66020;SDS011;52789;59.980;30.346;2024-01-10T00:47:48;4.70;;;4.30;;
66020;SDS011;52789;59.980;30.346;2024-01-10T00:50:14;5.70;;;4.30;;
66020;SDS011;52789;59.980;30.346;2024-01-10T00:52:40;4.77;;;4.27;;
66020;SDS011;52789;59.980;30.346;2024-01-10T00:55:05;8.73;;;5.27;;
66020;SDS011;52789;59.980;30.346;2024-01-10T00:57:31;7.33;;;4.77;;
66020;SDS011;52789;59.980;30.346;2024-01-10T00:59:57;5.80;;;4.20;;
66020;SDS011;52789;59.980;30.346;2024-01-10T01:02:22;4.30;;;3.90;;
66020;SDS011;52789;59.980;30.346;2024-01-10T01:04:48;4.13;;;3.70;;
66020;SDS011;52789;59.980;30.346;2024-01-10T01:07:14;4.27;;;3.87;;
66020;SDS011;52789;59.980;30.346;2024-01-10T01:09:39;5.60;;;3.60;;
66020;SDS011;52789;59.980;30.346;2024-01-10T01:12:05;4.00;;;3.60;;
66020;SDS011;52789;59.980;30.346;2024-01-10T01:14:31;4.90;;;3.80;;
66020;SDS011;52789;59.980;30.346;2024-01-10T01:16:56;4.57;;;3.87;;
66020;SDS011;52789;59.980;30.346;2024-01-10T01:19:22;4.17;;;3.43;;
66020;SDS011;52789;59.980;30.346;2024-01-10T01:21:47;4.27;;;3.87;;
66020;SDS011;52789;59.980;30.346;2024-01-10T01:24:13;4.70;;;3.80;;
66020;SDS011;52789;59.980;30.346;2024-01-10T01:26:39;5.23;;;4.57;;
66020;SDS011;52789;59.980;30.346;2024-01-10T01:29:04;4.70;;;4.20;;
66020;SDS011;52789;59.980;30.346;2024-01-10T01:31:30;6.50;;;5.00;;
66020;SDS011;52789;59.980;30.346;2024-01-10T01:33:55;8.37;;;5.77;;
66020;SDS011;52789;59.980;30.346;2024-01-10T01:36:21;5.60;;;4.90;;
66020;SDS011;52789;59.980;30.346;2024-01-10T01:38:46;6.67;;;4.83;;
66020;SDS011;52789;59.980;30.346;2024-01-10T01:41:12;5.37;;;4.80;;
66020;SDS011;52789;59.980;30.346;2024-01-10T01:43:40;6.47;;;4.90;;
66020;SDS011;52789;59.980;30.346;2024-01-10T01:46:05;8.33;;;6.03;;
66020;SDS011;52789;59.980;30.346;2024-01-10T01:48:32;6.87;;;5.27;;
66020;SDS011;52789;59.980;30.346;2024-01-10T01:51:00;6.27;;;5.27;;
66020;SDS011;52789;59.980;30.346;2024-01-10T01:53:29;7.27;;;5.37;;
66020;SDS011;52789;59.980;30.346;2024-01-10T01:55:55;5.43;;;4.17;;
66020;SDS011;52789;59.980;30.346;2024-01-10T01:58:22;4.83;;;3.43;;
66020;SDS011;52789;59.980;30.346;2024-01-10T02:00:48;3.77;;;3.37;;
66020;SDS011;52789;59.980;30.346;2024-01-10T02:03:17;4.33;;;3.40;;
66020;SDS011;52789;59.980;30.346;2024-01-10T02:05:43;3.78;;;3.08;;
66020;SDS011;52789;59.980;30.346;2024-01-10T02:08:09;3.87;;;2.40;;
66020;SDS011;52789;59.980;30.346;2024-01-10T02:10:34;2.93;;;2.67;;
66020;SDS011;52789;59.980;30.346;2024-01-10T02:13:00;3.20;;;2.77;;
66020;SDS011;52789;59.980;30.346;2024-01-10T02:15:26;3.30;;;2.60;;
66020;SDS011;52789;59.980;30.346;2024-01-10T02:18:12;5.80;;;3.08;;
66020;SDS011;52789;59.980;30.346;2024-01-10T02:20:39;2.73;;;2.50;;
66020;SDS011;52789;59.980;30.346;2024-01-10T02:23:07;2.85;;;2.45;;
66020;SDS011;52789;59.980;30.346;2024-01-10T02:25:34;2.70;;;2.50;;
66020;SDS011;52789;59.980;30.346;2024-01-10T02:27:59;3.50;;;2.70;;
66020;SDS011;52789;59.980;30.346;2024-01-10T02:30:25;3.20;;;2.40;;
66020;SDS011;52789;59.980;30.346;2024-01-10T02:32:50;2.83;;;2.43;;
66020;SDS011;52789;59.980;30.346;2024-01-10T02:35:16;4.17;;;2.73;;
66020;SDS011;52789;59.980;30.346;2024-01-10T02:37:41;2.53;;;2.33;;
66020;SDS011;52789;59.980;30.346;2024-01-10T02:40:07;3.37;;;3.07;;
66020;SDS011;52789;59.980;30.346;2024-01-10T02:42:33;2.83;;;2.63;;
66020;SDS011;52789;59.980;30.346;2024-01-10T02:45:00;3.00;;;2.70;;
66020;SDS011;52789;59.980;30.346;2024-01-10T02:47:25;3.13;;;2.80;;
66020;SDS011;52789;59.980;30.346;2024-01-10T02:49:51;2.53;;;2.30;;
66020;SDS011;52789;59.980;30.346;2024-01-10T02:52:16;3.17;;;2.87;;
66020;SDS011;52789;59.980;30.346;2024-01-10T02:54:42;2.67;;;2.47;;
66020;SDS011;52789;59.980;30.346;2024-01-10T02:57:07;2.53;;;2.33;;
66020;SDS011;52789;59.980;30.346;2024-01-10T02:59:33;3.57;;;3.27;;
66020;SDS011;52789;59.980;30.346;2024-01-10T03:01:58;3.43;;;2.60;;
66020;SDS011;52789;59.980;30.346;2024-01-10T03:04:27;2.33;;;2.13;;
66020;SDS011;52789;59.980;30.346;2024-01-10T03:06:53;4.17;;;2.90;;
66020;SDS011;52789;59.980;30.346;2024-01-10T03:09:18;2.83;;;2.63;;
66020;SDS011;52789;59.980;30.346;2024-01-10T03:11:44;2.83;;;2.60;;
66020;SDS011;52789;59.980;30.346;2024-01-10T03:14:10;2.83;;;2.30;;
66020;SDS011;52789;59.980;30.346;2024-01-10T03:16:36;4.15;;;3.15;;
66020;SDS011;52789;59.980;30.346;2024-01-10T03:19:03;3.45;;;2.60;;
66020;SDS011;52789;59.980;30.346;2024-01-10T03:21:29;2.88;;;2.47;;
66020;SDS011;52789;59.980;30.346;2024-01-10T03:23:57;3.40;;;2.40;;
66020;SDS011;52789;59.980;30.346;2024-01-10T03:26:24;2.80;;;2.60;;
66020;SDS011;52789;59.980;30.346;2024-01-10T03:28:51;4.10;;;2.70;;
66020;SDS011;52789;59.980;30.346;2024-01-10T03:31:17;3.50;;;3.00;;
66020;SDS011;52789;59.980;30.346;2024-01-10T03:33:42;4.93;;;2.57;;
66020;SDS011;52789;59.980;30.346;2024-01-10T03:36:14;2.53;;;2.33;;
66020;SDS011;52789;59.980;30.346;2024-01-10T03:38:41;3.22;;;2.80;;
66020;SDS011;52789;59.980;30.346;2024-01-10T03:41:07;2.50;;;2.30;;
66020;SDS011;52789;59.980;30.346;2024-01-10T03:43:32;8.07;;;6.50;;
66020;SDS011;52789;59.980;30.346;2024-01-10T03:45:58;2.20;;;2.00;;
66020;SDS011;52789;59.980;30.346;2024-01-10T03:48:24;2.90;;;2.67;;
66020;SDS011;52789;59.980;30.346;2024-01-10T03:50:50;2.73;;;2.40;;
66020;SDS011;52789;59.980;30.346;2024-01-10T03:53:15;2.67;;;2.47;;
66020;SDS011;52789;59.980;30.346;2024-01-10T03:55:41;3.83;;;2.73;;
66020;SDS011;52789;59.980;30.346;2024-01-10T03:58:07;3.90;;;3.23;;
66020;SDS011;52789;59.980;30.346;2024-01-10T04:00:32;4.77;;;2.93;;
66020;SDS011;52789;59.980;30.346;2024-01-10T04:03:02;3.37;;;2.67;;
66020;SDS011;52789;59.980;30.346;2024-01-10T04:05:28;3.78;;;3.30;;
66020;SDS011;52789;59.980;30.346;2024-01-10T04:07:54;3.07;;;2.50;;
66020;SDS011;52789;59.980;30.346;2024-01-10T04:10:22;3.00;;;2.80;;
66020;SDS011;52789;59.980;30.346;2024-01-10T04:12:48;5.35;;;3.13;;
66020;SDS011;52789;59.980;30.346;2024-01-10T04:15:14;3.27;;;2.97;;
66020;SDS011;52789;59.980;30.346;2024-01-10T04:17:40;3.75;;;2.92;;
66020;SDS011;52789;59.980;30.346;2024-01-10T04:20:06;5.17;;;3.37;;
66020;SDS011;52789;59.980;30.346;2024-01-10T04:22:32;5.22;;;3.35;;
66020;SDS011;52789;59.980;30.346;2024-01-10T04:24:58;3.43;;;3.13;;
66020;SDS011;52789;59.980;30.346;2024-01-10T04:27:24;4.35;;;3.95;;
66020;SDS011;52789;59.980;30.346;2024-01-10T04:29:50;6.97;;;4.00;;
66020;SDS011;52789;59.980;30.346;2024-01-10T04:32:16;4.00;;;3.17;;
66020;SDS011;52789;59.980;30.346;2024-01-10T04:34:41;3.83;;;3.43;;
66020;SDS011;52789;59.980;30.346;2024-01-10T04:37:07;3.57;;;3.27;;
66020;SDS011;52789;59.980;30.346;2024-01-10T04:39:33;5.70;;;4.37;;
66020;SDS011;52789;59.980;30.346;2024-01-10T04:41:59;5.88;;;4.00;;
66020;SDS011;52789;59.980;30.346;2024-01-10T04:44:25;5.00;;;4.30;;
66020;SDS011;52789;59.980;30.346;2024-01-10T04:46:50;4.83;;;4.37;;
66020;SDS011;52789;59.980;30.346;2024-01-10T04:49:16;4.20;;;3.70;;
66020;SDS011;52789;59.980;30.346;2024-01-10T04:51:41;4.47;;;3.87;;
66020;SDS011;52789;59.980;30.346;2024-01-10T04:54:08;5.18;;;4.72;;
66020;SDS011;52789;59.980;30.346;2024-01-10T04:56:34;4.73;;;4.03;;
66020;SDS011;52789;59.980;30.346;2024-01-10T04:59:01;5.72;;;4.18;;
66020;SDS011;52789;59.980;30.346;2024-01-10T05:01:28;5.75;;;4.53;;
66020;SDS011;52789;59.980;30.346;2024-01-10T05:03:54;4.45;;;4.05;;
66020;SDS011;52789;59.980;30.346;2024-01-10T05:06:19;5.73;;;3.60;;
66020;SDS011;52789;59.980;30.346;2024-01-10T05:08:45;4.70;;;3.60;;
66020;SDS011;52789;59.980;30.346;2024-01-10T05:11:11;4.63;;;4.03;;
66020;SDS011;52789;59.980;30.346;2024-01-10T05:13:37;5.68;;;4.63;;
66020;SDS011;52789;59.980;30.346;2024-01-10T05:16:02;7.17;;;5.13;;
66020;SDS011;52789;59.980;30.346;2024-01-10T05:18:28;8.40;;;5.40;;
66020;SDS011;52789;59.980;30.346;2024-01-10T05:20:53;5.37;;;4.87;;
66020;SDS011;52789;59.980;30.346;2024-01-10T05:23:19;9.93;;;4.90;;
66020;SDS011;52789;59.980;30.346;2024-01-10T05:25:46;6.05;;;4.18;;
66020;SDS011;52789;59.980;30.346;2024-01-10T05:28:11;5.60;;;3.97;;
66020;SDS011;52789;59.980;30.346;2024-01-10T05:30:37;4.22;;;3.83;;
66020;SDS011;52789;59.980;30.346;2024-01-10T05:33:03;9.17;;;5.20;;
66020;SDS011;52789;59.980;30.346;2024-01-10T05:35:28;3.73;;;3.40;;
66020;SDS011;52789;59.980;30.346;2024-01-10T05:37:54;3.73;;;3.23;;
66020;SDS011;52789;59.980;30.346;2024-01-10T05:40:20;7.73;;;3.63;;
66020;SDS011;52789;59.980;30.346;2024-01-10T05:42:45;5.83;;;3.93;;
66020;SDS011;52789;59.980;30.346;2024-01-10T05:45:11;6.43;;;4.53;;
66020;SDS011;52789;59.980;30.346;2024-01-10T05:47:36;6.77;;;4.87;;
66020;SDS011;52789;59.980;30.346;2024-01-10T05:50:02;7.63;;;5.67;;
66020;SDS011;52789;59.980;30.346;2024-01-10T05:54:57;11.98;;;7.25;;
66020;SDS011;52789;59.980;30.346;2024-01-10T05:57:22;11.60;;;6.97;;
66020;SDS011;52789;59.980;30.346;2024-01-10T05:59:48;12.30;;;8.70;;
66020;SDS011;52789;59.980;30.346;2024-01-10T06:02:14;14.27;;;8.00;;
66020;SDS011;52789;59.980;30.346;2024-01-10T06:04:44;11.20;;;7.10;;
66020;SDS011;52789;59.980;30.346;2024-01-10T06:07:10;12.97;;;8.47;;
66020;SDS011;52789;59.980;30.346;2024-01-10T06:09:35;14.67;;;8.60;;
66020;SDS011;52789;59.980;30.346;2024-01-10T06:12:01;14.17;;;8.17;;
66020;SDS011;52789;59.980;30.346;2024-01-10T06:14:26;12.33;;;8.07;;
66020;SDS011;52789;59.980;30.346;2024-01-10T06:16:52;9.17;;;6.70;;
66020;SDS011;52789;59.980;30.346;2024-01-10T06:19:17;10.73;;;6.67;;
66020;SDS011;52789;59.980;30.346;2024-01-10T06:21:43;10.98;;;6.78;;
66020;SDS011;52789;59.980;30.346;2024-01-10T06:24:09;9.17;;;6.77;;
66020;SDS011;52789;59.980;30.346;2024-01-10T06:26:34;6.67;;;5.77;;
66020;SDS011;52789;59.980;30.346;2024-01-10T06:29:00;9.33;;;5.93;;
66020;SDS011;52789;59.980;30.346;2024-01-10T06:31:28;11.60;;;5.95;;
66020;SDS011;52789;59.980;30.346;2024-01-10T06:33:54;9.07;;;5.43;;
66020;SDS011;52789;59.980;30.346;2024-01-10T06:36:19;7.30;;;5.57;;
66020;SDS011;52789;59.980;30.346;2024-01-10T06:38:44;8.03;;;5.10;;
66020;SDS011;52789;59.980;30.346;2024-01-10T06:41:10;9.93;;;5.60;;
66020;SDS011;52789;59.980;30.346;2024-01-10T06:43:39;11.60;;;7.18;;
66020;SDS011;52789;59.980;30.346;2024-01-10T06:46:05;6.93;;;5.38;;
66020;SDS011;52789;59.980;30.346;2024-01-10T06:48:31;9.53;;;6.13;;
66020;SDS011;52789;59.980;30.346;2024-01-10T06:50:57;6.70;;;5.77;;
66020;SDS011;52789;59.980;30.346;2024-01-10T06:53:23;7.77;;;6.07;;
66020;SDS011;52789;59.980;30.346;2024-01-10T06:55:48;13.10;;;6.63;;
66020;SDS011;52789;59.980;30.346;2024-01-10T06:58:14;6.70;;;5.97;;
66020;SDS011;52789;59.980;30.346;2024-01-10T07:00:39;6.53;;;5.07;;
66020;SDS011;52789;59.980;30.346;2024-01-10T07:03:07;7.50;;;6.17;;
66020;SDS011;52789;59.980;30.346;2024-01-10T07:05:32;9.70;;;6.63;;
66020;SDS011;52789;59.980;30.346;2024-01-10T07:07:59;10.73;;;5.03;;
66020;SDS011;52789;59.980;30.346;2024-01-10T07:10:28;8.75;;;6.30;;
66020;SDS011;52789;59.980;30.346;2024-01-10T07:12:54;9.30;;;5.65;;
66020;SDS011;52789;59.980;30.346;2024-01-10T07:15:20;11.80;;;6.65;;
66020;SDS011;52789;59.980;30.346;2024-01-10T07:17:46;9.02;;;5.78;;
66020;SDS011;52789;59.980;30.346;2024-01-10T07:20:12;9.40;;;7.27;;
66020;SDS011;52789;59.980;30.346;2024-01-10T07:22:38;10.97;;;6.80;;
66020;SDS011;52789;59.980;30.346;2024-01-10T07:25:09;9.55;;;7.25;;
66020;SDS011;52789;59.980;30.346;2024-01-10T07:27:42;12.18;;;7.93;;
66020;SDS011;52789;59.980;30.346;2024-01-10T07:30:09;19.10;;;11.40;;
66020;SDS011;52789;59.980;30.346;2024-01-10T07:32:39;16.77;;;11.13;;
66020;SDS011;52789;59.980;30.346;2024-01-10T07:35:08;14.90;;;11.38;;
66020;SDS011;52789;59.980;30.346;2024-01-10T07:40:06;14.75;;;9.98;;
66020;SDS011;52789;59.980;30.346;2024-01-10T07:42:34;11.98;;;9.65;;
66020;SDS011;52789;59.980;30.346;2024-01-10T07:45:00;19.90;;;9.93;;
66020;SDS011;52789;59.980;30.346;2024-01-10T07:47:30;15.65;;;10.40;;
66020;SDS011;52789;59.980;30.346;2024-01-10T07:49:56;15.50;;;9.00;;
66020;SDS011;52789;59.980;30.346;2024-01-10T07:52:22;10.85;;;9.05;;
66020;SDS011;52789;59.980;30.346;2024-01-10T07:54:48;13.17;;;8.77;;
66020;SDS011;52789;59.980;30.346;2024-01-10T07:57:13;17.43;;;11.50;;
66020;SDS011;52789;59.980;30.346;2024-01-10T07:59:39;20.10;;;11.13;;
66020;SDS011;52789;59.980;30.346;2024-01-10T08:02:05;17.97;;;12.53;;
66020;SDS011;52789;59.980;30.346;2024-01-10T08:04:32;23.75;;;13.57;;
66020;SDS011;52789;59.980;30.346;2024-01-10T08:06:58;21.03;;;12.73;;
66020;SDS011;52789;59.980;30.346;2024-01-10T08:09:24;17.80;;;11.17;;
66020;SDS011;52789;59.980;30.346;2024-01-10T08:11:49;16.97;;;12.33;;
66020;SDS011;52789;59.980;30.346;2024-01-10T08:14:15;18.57;;;13.47;;
66020;SDS011;52789;59.980;30.346;2024-01-10T08:16:41;17.75;;;11.70;;
66020;SDS011;52789;59.980;30.346;2024-01-10T08:19:07;15.43;;;10.73;;
66020;SDS011;52789;59.980;30.346;2024-01-10T08:21:33;16.33;;;11.90;;
66020;SDS011;52789;59.980;30.346;2024-01-10T08:23:59;16.30;;;12.30;;
66020;SDS011;52789;59.980;30.346;2024-01-10T08:26:26;26.48;;;14.30;;
66020;SDS011;52789;59.980;30.346;2024-01-10T08:28:52;20.77;;;12.70;;
66020;SDS011;52789;59.980;30.346;2024-01-10T08:31:17;29.77;;;17.93;;
66020;SDS011;52789;59.980;30.346;2024-01-10T08:33:43;30.27;;;16.73;;
66020;SDS011;52789;59.980;30.346;2024-01-10T08:36:10;26.85;;;15.65;;
66020;SDS011;52789;59.980;30.346;2024-01-10T08:38:36;31.33;;;16.47;;
66020;SDS011;52789;59.980;30.346;2024-01-10T08:41:02;26.25;;;15.98;;
66020;SDS011;52789;59.980;30.346;2024-01-10T08:43:28;27.05;;;16.08;;
66020;SDS011;52789;59.980;30.346;2024-01-10T08:45:54;31.03;;;17.23;;
66020;SDS011;52789;59.980;30.346;2024-01-10T08:48:19;26.37;;;16.27;;
66020;SDS011;52789;59.980;30.346;2024-01-10T08:50:45;26.87;;;17.07;;
66020;SDS011;52789;59.980;30.346;2024-01-10T08:53:11;25.20;;;17.17;;
66020;SDS011;52789;59.980;30.346;2024-01-10T08:55:36;29.77;;;17.00;;
66020;SDS011;52789;59.980;30.346;2024-01-10T08:58:05;26.03;;;17.17;;
66020;SDS011;52789;59.980;30.346;2024-01-10T09:00:30;25.58;;;16.98;;
66020;SDS011;52789;59.980;30.346;2024-01-10T09:02:58;30.60;;;18.70;;
66020;SDS011;52789;59.980;30.346;2024-01-10T09:05:23;28.60;;;17.88;;
66020;SDS011;52789;59.980;30.346;2024-01-10T09:07:49;24.87;;;15.97;;
66020;SDS011;52789;59.980;30.346;2024-01-10T09:10:15;24.73;;;15.77;;
66020;SDS011;52789;59.980;30.346;2024-01-10T09:12:41;22.37;;;16.47;;
66020;SDS011;52789;59.980;30.346;2024-01-10T09:15:11;28.30;;;14.43;;
66020;SDS011;52789;59.980;30.346;2024-01-10T09:17:39;28.08;;;16.60;;
66020;SDS011;52789;59.980;30.346;2024-01-10T09:20:06;26.88;;;14.88;;
66020;SDS011;52789;59.980;30.346;2024-01-10T09:22:32;25.30;;;14.32;;
66020;SDS011;52789;59.980;30.346;2024-01-10T09:24:57;27.60;;;15.77;;
66020;SDS011;52789;59.980;30.346;2024-01-10T09:27:29;20.50;;;13.93;;
66020;SDS011;52789;59.980;30.346;2024-01-10T09:29:56;22.50;;;14.18;;
66020;SDS011;52789;59.980;30.346;2024-01-10T09:32:22;18.40;;;13.87;;
66020;SDS011;52789;59.980;30.346;2024-01-10T09:34:47;25.67;;;14.83;;
66020;SDS011;52789;59.980;30.346;2024-01-10T09:37:13;21.73;;;14.53;;
66020;SDS011;52789;59.980;30.346;2024-01-10T09:39:38;18.83;;;12.37;;
66020;SDS011;52789;59.980;30.346;2024-01-10T09:42:04;19.57;;;12.60;;
66020;SDS011;52789;59.980;30.346;2024-01-10T09:44:31;19.10;;;11.57;;
66020;SDS011;52789;59.980;30.346;2024-01-10T09:46:58;15.35;;;11.23;;
66020;SDS011;52789;59.980;30.346;2024-01-10T09:49:24;15.90;;;10.80;;
66020;SDS011;52789;59.980;30.346;2024-01-10T09:51:50;15.10;;;9.88;;
66020;SDS011;52789;59.980;30.346;2024-01-10T09:54:23;17.33;;;9.90;;
66020;SDS011;52789;59.980;30.346;2024-01-10T09:56:51;15.88;;;9.68;;
66020;SDS011;52789;59.980;30.346;2024-01-10T09:59:16;13.70;;;9.60;;
66020;SDS011;52789;59.980;30.346;2024-01-10T10:01:43;14.67;;;9.17;;
66020;SDS011;52789;59.980;30.346;2024-01-10T10:04:09;16.07;;;9.77;;
66020;SDS011;52789;59.980;30.346;2024-01-10T10:06:40;17.33;;;9.82;;
66020;SDS011;52789;59.980;30.346;2024-01-10T10:09:06;18.73;;;10.15;;
66020;SDS011;52789;59.980;30.346;2024-01-10T10:11:33;15.15;;;9.15;;
66020;SDS011;52789;59.980;30.346;2024-01-10T10:14:15;17.13;;;9.77;;
66020;SDS011;52789;59.980;30.346;2024-01-10T10:16:41;16.23;;;9.18;;
66020;SDS011;52789;59.980;30.346;2024-01-10T10:19:07;13.70;;;8.67;;
66020;SDS011;52789;59.980;30.346;2024-01-10T10:21:34;11.85;;;8.05;;
66020;SDS011;52789;59.980;30.346;2024-01-10T10:24:01;10.30;;;6.43;;
66020;SDS011;52789;59.980;30.346;2024-01-10T10:26:29;13.85;;;8.38;;
66020;SDS011;52789;59.980;30.346;2024-01-10T10:31:23;10.97;;;7.93;;
66020;SDS011;52789;59.980;30.346;2024-01-10T10:33:49;13.70;;;8.40;;
66020;SDS011;52789;59.980;30.346;2024-01-10T10:36:19;14.15;;;8.15;;
66020;SDS011;52789;59.980;30.346;2024-01-10T10:38:48;18.50;;;10.52;;
66020;SDS011;52789;59.980;30.346;2024-01-10T10:41:14;18.98;;;10.23;;
66020;SDS011;52789;59.980;30.346;2024-01-10T10:43:40;15.83;;;9.97;;
66020;SDS011;52789;59.980;30.346;2024-01-10T10:46:09;15.67;;;9.50;;
66020;SDS011;52789;59.980;30.346;2024-01-10T10:48:40;15.30;;;10.10;;
66020;SDS011;52789;59.980;30.346;2024-01-10T10:51:15;14.00;;;10.57;;
66020;SDS011;52789;59.980;30.346;2024-01-10T10:53:46;16.07;;;10.87;;
66020;SDS011;52789;59.980;30.346;2024-01-10T10:56:13;19.93;;;10.27;;
66020;SDS011;52789;59.980;30.346;2024-01-10T10:58:39;15.83;;;11.80;;
66020;SDS011;52789;59.980;30.346;2024-01-10T11:01:08;22.05;;;11.77;;
66020;SDS011;52789;59.980;30.346;2024-01-10T11:06:50;19.87;;;11.43;;
66020;SDS011;52789;59.980;30.346;2024-01-10T11:09:16;26.90;;;12.20;;
66020;SDS011;52789;59.980;30.346;2024-01-10T11:12:10;20.03;;;11.93;;
66020;SDS011;52789;59.980;30.346;2024-01-10T11:14:54;20.97;;;12.50;;
66020;SDS011;52789;59.980;30.346;2024-01-10T11:17:26;22.83;;;11.97;;
66020;SDS011;52789;59.980;30.346;2024-01-10T11:20:10;18.87;;;11.23;;
66020;SDS011;52789;59.980;30.346;2024-01-10T11:25:48;19.30;;;12.63;;
66020;SDS011;52789;59.980;30.346;2024-01-10T11:28:13;22.93;;;13.33;;
66020;SDS011;52789;59.980;30.346;2024-01-10T11:30:49;20.23;;;11.17;;
66020;SDS011;52789;59.980;30.346;2024-01-10T11:33:20;22.13;;;12.27;;
66020;SDS011;52789;59.980;30.346;2024-01-10T11:46:34;24.03;;;14.13;;
66020;SDS011;52789;59.980;30.346;2024-01-10T11:49:00;23.27;;;13.23;;
66020;SDS011;52789;59.980;30.346;2024-01-10T11:51:25;28.47;;;15.63;;
66020;SDS011;52789;59.980;30.346;2024-01-10T11:53:51;31.17;;;15.57;;
66020;SDS011;52789;59.980;30.346;2024-01-10T11:56:18;26.87;;;15.07;;
66020;SDS011;52789;59.980;30.346;2024-01-10T11:59:00;26.13;;;16.00;;
66020;SDS011;52789;59.980;30.346;2024-01-10T12:01:29;22.30;;;14.03;;
66020;SDS011;52789;59.980;30.346;2024-01-10T12:03:55;26.07;;;16.47;;
66020;SDS011;52789;59.980;30.346;2024-01-10T12:06:21;29.27;;;15.20;;
66020;SDS011;52789;59.980;30.346;2024-01-10T12:08:48;21.90;;;14.23;;
66020;SDS011;52789;59.980;30.346;2024-01-10T12:11:14;28.57;;;15.63;;
66020;SDS011;52789;59.980;30.346;2024-01-10T12:13:41;26.63;;;14.87;;
66020;SDS011;52789;59.980;30.346;2024-01-10T12:16:06;21.13;;;13.70;;
66020;SDS011;52789;59.980;30.346;2024-01-10T12:18:32;21.63;;;12.70;;
66020;SDS011;52789;59.980;30.346;2024-01-10T12:20:59;24.40;;;13.17;;
66020;SDS011;52789;59.980;30.346;2024-01-10T12:23:25;22.70;;;12.50;;
66020;SDS011;52789;59.980;30.346;2024-01-10T12:25:56;23.43;;;13.93;;
66020;SDS011;52789;59.980;30.346;2024-01-10T12:28:21;18.97;;;10.67;;
66020;SDS011;52789;59.980;30.346;2024-01-10T12:31:16;21.07;;;12.73;;
66020;SDS011;52789;59.980;30.346;2024-01-10T12:33:42;17.53;;;11.30;;
66020;SDS011;52789;59.980;30.346;2024-01-10T12:36:08;15.77;;;10.13;;
66020;SDS011;52789;59.980;30.346;2024-01-10T12:38:37;18.90;;;12.10;;
66020;SDS011;52789;59.980;30.346;2024-01-10T12:41:04;17.23;;;9.87;;
66020;SDS011;52789;59.980;30.346;2024-01-10T12:43:30;19.27;;;10.60;;
66020;SDS011;52789;59.980;30.346;2024-01-10T12:48:31;14.53;;;10.17;;
66020;SDS011;52789;59.980;30.346;2024-01-10T12:50:58;15.90;;;11.00;;
66020;SDS011;52789;59.980;30.346;2024-01-10T12:53:34;16.37;;;10.07;;
66020;SDS011;52789;59.980;30.346;2024-01-10T12:56:04;17.97;;;9.80;;
66020;SDS011;52789;59.980;30.346;2024-01-10T12:58:31;17.60;;;10.27;;
66020;SDS011;52789;59.980;30.346;2024-01-10T13:00:58;25.27;;;16.77;;
66020;SDS011;52789;59.980;30.346;2024-01-10T13:03:23;20.80;;;11.90;;
66020;SDS011;52789;59.980;30.346;2024-01-10T13:05:52;17.67;;;10.67;;
66020;SDS011;52789;59.980;30.346;2024-01-10T13:08:18;19.15;;;11.05;;
66020;SDS011;52789;59.980;30.346;2024-01-10T13:10:44;18.17;;;10.37;;
66020;SDS011;52789;59.980;30.346;2024-01-10T13:13:11;16.90;;;10.07;;
66020;SDS011;52789;59.980;30.346;2024-01-10T13:15:37;17.70;;;10.97;;
66020;SDS011;52789;59.980;30.346;2024-01-10T13:18:03;16.20;;;10.13;;
66020;SDS011;52789;59.980;30.346;2024-01-10T13:20:28;15.70;;;9.93;;
66020;SDS011;52789;59.980;30.346;2024-01-10T13:22:54;18.63;;;11.27;;
66020;SDS011;52789;59.980;30.346;2024-01-10T13:25:19;17.77;;;10.23;;
66020;SDS011;52789;59.980;30.346;2024-01-10T13:27:51;16.60;;;10.43;;
66020;SDS011;52789;59.980;30.346;2024-01-10T13:30:17;17.80;;;10.60;;
66020;SDS011;52789;59.980;30.346;2024-01-10T13:32:43;21.73;;;11.70;;
66020;SDS011;52789;59.980;30.346;2024-01-10T13:35:09;15.23;;;10.17;;
66020;SDS011;52789;59.980;30.346;2024-01-10T13:37:34;13.83;;;9.20;;
66020;SDS011;52789;59.980;30.346;2024-01-10T13:40:01;12.17;;;8.07;;
66020;SDS011;52789;59.980;30.346;2024-01-10T13:42:31;15.30;;;8.60;;
66020;SDS011;52789;59.980;30.346;2024-01-10T13:44:56;13.40;;;8.50;;
66020;SDS011;52789;59.980;30.346;2024-01-10T13:47:22;9.50;;;7.37;;
66020;SDS011;52789;59.980;30.346;2024-01-10T13:49:48;10.77;;;7.63;;
66020;SDS011;52789;59.980;30.346;2024-01-10T13:52:14;9.73;;;6.30;;
66020;SDS011;52789;59.980;30.346;2024-01-10T13:54:39;7.40;;;5.83;;
66020;SDS011;52789;59.980;30.346;2024-01-10T13:57:05;10.70;;;5.43;;
66020;SDS011;52789;59.980;30.346;2024-01-10T13:59:30;6.90;;;6.10;;
66020;SDS011;52789;59.980;30.346;2024-01-10T14:01:57;6.73;;;4.90;;
66020;SDS011;52789;59.980;30.346;2024-01-10T14:04:24;6.70;;;5.18;;
66020;SDS011;52789;59.980;30.346;2024-01-10T14:06:51;5.90;;;5.07;;
66020;SDS011;52789;59.980;30.346;2024-01-10T14:09:16;8.10;;;5.47;;
66020;SDS011;52789;59.980;30.346;2024-01-10T14:11:43;6.77;;;5.17;;
66020;SDS011;52789;59.980;30.346;2024-01-10T14:14:15;6.37;;;4.87;;
66020;SDS011;52789;59.980;30.346;2024-01-10T14:16:41;6.50;;;5.60;;
66020;SDS011;52789;59.980;30.346;2024-01-10T14:19:07;7.47;;;5.83;;
66020;SDS011;52789;59.980;30.346;2024-01-10T14:21:32;7.03;;;4.80;;
66020;SDS011;52789;59.980;30.346;2024-01-10T14:23:58;5.23;;;4.70;;
66020;SDS011;52789;59.980;30.346;2024-01-10T14:26:24;8.40;;;4.40;;
66020;SDS011;52789;59.980;30.346;2024-01-10T14:28:51;5.50;;;4.67;;
66020;SDS011;52789;59.980;30.346;2024-01-10T14:33:46;3.90;;;3.50;;
66020;SDS011;52789;59.980;30.346;2024-01-10T14:36:11;4.40;;;2.77;;
66020;SDS011;52789;59.980;30.346;2024-01-10T14:38:38;5.30;;;3.40;;
66020;SDS011;52789;59.980;30.346;2024-01-10T14:41:04;3.33;;;3.03;;
66020;SDS011;52789;59.980;30.346;2024-01-10T14:43:31;3.93;;;3.53;;
66020;SDS011;52789;59.980;30.346;2024-01-10T14:45:57;3.23;;;2.93;;
66020;SDS011;52789;59.980;30.346;2024-01-10T14:48:23;3.53;;;3.13;;
66020;SDS011;52789;59.980;30.346;2024-01-10T14:50:49;3.97;;;2.80;;